createdAt,value
2023-04-15T00:00:58.014Z,100980.41
2023-04-15T00:03:46.853Z,100984.38
2023-04-15T00:06:35.247Z,100977.28
2023-04-15T00:09:23.100Z,100972.84
2023-04-15T00:12:13.772Z,100974.84
2023-04-15T00:15:03.284Z,100975.00
2023-04-15T00:17:52.361Z,100977.44
2023-04-15T00:20:43.257Z,100968.91
2023-04-15T00:23:31.844Z,100967.13
2023-04-15T00:26:20.140Z,100975.88
2023-04-15T00:29:07.445Z,100976.03
2023-04-15T00:31:57.313Z,100971.28
2023-04-15T00:34:46.297Z,100968.63
2023-04-15T00:37:37.258Z,100977.75
2023-04-15T00:40:26.258Z,100980.84
2023-04-15T00:43:13.951Z,100982.34
2023-04-15T00:46:04.168Z,100980.66
2023-04-15T00:48:55.066Z,100980.03
2023-04-15T00:51:48.323Z,100980.50
2023-04-15T00:54:36.640Z,100984.91
2023-04-15T00:57:24.325Z,100988.91
2023-04-15T01:00:13.986Z,100987.84
2023-04-15T01:03:02.052Z,100986.19
2023-04-15T01:05:58.183Z,100994.13
2023-04-15T01:08:46.030Z,100983.56
2023-04-15T01:11:34.463Z,100986.19
2023-04-15T01:14:27.553Z,100985.91
2023-04-15T01:17:15.596Z,100986.50
2023-04-15T01:20:10.655Z,100985.59
2023-04-15T01:23:00.843Z,100990.88
2023-04-15T01:25:50.282Z,100999.84
2023-04-15T01:28:40.061Z,100984.09
2023-04-15T01:31:27.478Z,100991.63
2023-04-15T01:34:19.492Z,100994.63
2023-04-15T01:37:11.218Z,100992.31
2023-04-15T01:40:01.979Z,100999.63
2023-04-15T01:42:51.067Z,100998.84
2023-04-15T01:45:39.036Z,100995.84
2023-04-15T01:48:33.434Z,101007.00
2023-04-15T01:51:20.990Z,101007.84
2023-04-15T01:54:08.398Z,101001.03
2023-04-15T01:56:56.820Z,101002.03
2023-04-15T01:59:47.737Z,101003.13
2023-04-15T02:02:36.033Z,101009.50
2023-04-15T02:05:24.383Z,101003.97
2023-04-15T02:08:12.565Z,101005.75
2023-04-15T02:11:01.271Z,101007.84
2023-04-15T02:13:48.636Z,101005.88
2023-04-15T02:17:02.763Z,101011.16
2023-04-15T02:19:50.464Z,101017.06
2023-04-15T02:22:38.026Z,101011.44
2023-04-15T02:25:25.412Z,101014.38
2023-04-15T02:28:12.909Z,101018.94
2023-04-15T02:31:04.716Z,101019.22
2023-04-15T02:33:56.924Z,101024.47
2023-04-15T02:36:44.418Z,101021.31
2023-04-15T02:39:35.358Z,101025.75
2023-04-15T02:42:23.313Z,101031.16
2023-04-15T02:45:13.224Z,101028.31
2023-04-15T02:48:06.336Z,101039.81
2023-04-15T02:51:11.536Z,101038.59
2023-04-15T02:53:58.923Z,101042.06
2023-04-15T02:56:50.757Z,101052.88
2023-04-15T02:59:39.691Z,101055.53
2023-04-15T03:02:33.629Z,101058.44
2023-04-15T03:05:21.243Z,101052.91
2023-04-15T03:08:15.223Z,101053.88
2023-04-15T03:11:02.938Z,101053.34
2023-04-15T03:14:07.582Z,101056.81
2023-04-15T03:16:55.066Z,101055.31
2023-04-15T03:19:42.796Z,101068.63
2023-04-15T03:22:31.799Z,101065.16
2023-04-15T03:25:24.168Z,101070.28
2023-04-15T03:28:29.178Z,101075.00
2023-04-15T03:31:17.471Z,101075.28
2023-04-15T03:34:16.157Z,101071.84
2023-04-15T03:37:07.743Z,101076.69
2023-04-15T03:39:56.772Z,101083.75
2023-04-15T03:42:46.155Z,101087.66
2023-04-15T03:45:34.507Z,101084.03
2023-04-15T03:48:21.761Z,101086.97
2023-04-15T03:51:09.367Z,101090.84
2023-04-15T03:53:57.122Z,101097.09
2023-04-15T03:56:44.815Z,101105.81
2023-04-15T03:59:34.186Z,101103.59
2023-04-15T04:02:23.701Z,101099.00
2023-04-15T04:05:15.120Z,101108.16
2023-04-15T04:08:02.850Z,101109.44
2023-04-15T04:10:50.955Z,101117.34
2023-04-15T04:16:42.246Z,101116.66
2023-04-15T04:19:30.180Z,101125.38
2023-04-15T04:22:17.739Z,101124.69
2023-04-15T04:25:22.036Z,101124.53
2023-04-15T04:28:09.496Z,101129.94
2023-04-15T04:31:04.032Z,101130.63
2023-04-15T04:33:53.817Z,101136.28
2023-04-15T04:36:46.796Z,101133.66
2023-04-15T04:39:33.980Z,101144.19
2023-04-15T04:42:22.383Z,101142.25
2023-04-15T04:45:10.559Z,101149.59
2023-04-15T04:48:01.158Z,101158.31
2023-04-15T04:50:52.698Z,101166.66
2023-04-15T04:53:40.173Z,101171.63
2023-04-15T04:56:27.696Z,101173.56
2023-04-15T04:59:15.163Z,101176.59
2023-04-15T05:02:03.758Z,101180.91
2023-04-15T05:04:54.741Z,101183.53
2023-04-15T05:07:44.304Z,101184.50
2023-04-15T05:10:34.482Z,101190.47
2023-04-15T05:13:22.527Z,101196.56
2023-04-15T05:16:15.362Z,101205.44
2023-04-15T05:19:03.244Z,101204.59
2023-04-15T05:21:51.433Z,101213.59
2023-04-15T05:24:40.687Z,101221.38
2023-04-15T05:27:28.542Z,101222.47
2023-04-15T05:30:25.592Z,101224.56
2023-04-15T05:33:20.613Z,101229.53
2023-04-15T05:36:08.537Z,101233.00
2023-04-15T05:38:56.474Z,101238.97
2023-04-15T05:41:48.312Z,101237.31
2023-04-15T05:44:37.032Z,101248.41
2023-04-15T05:47:24.718Z,101255.31
2023-04-15T05:50:12.553Z,101260.31
2023-04-15T05:53:02.326Z,101260.03
2023-04-15T05:55:50.409Z,101262.22
2023-04-15T05:58:39.303Z,101267.09
2023-04-15T06:05:11.857Z,101289.84
2023-04-15T06:08:05.095Z,101291.91
2023-04-15T06:11:12.336Z,101295.91
2023-04-15T06:14:01.592Z,101302.44
2023-04-15T06:16:48.947Z,101310.06
2023-04-15T06:19:41.952Z,101311.19
2023-04-15T06:22:46.917Z,101323.00
2023-04-15T06:25:36.894Z,101327.94
2023-04-15T06:29:35.360Z,101337.25
2023-04-15T06:31:46.548Z,101332.94
2023-04-15T06:34:57.818Z,101334.19
2023-04-15T06:37:45.560Z,101338.72
2023-04-15T06:40:48.517Z,101342.31
2023-04-15T06:43:42.676Z,101350.50
2023-04-15T06:46:34.757Z,101354.53
2023-04-15T06:49:26.915Z,101353.22
2023-04-15T06:52:16.612Z,101362.94
2023-04-15T06:55:39.638Z,101361.09
2023-04-15T06:58:29.508Z,101365.09
2023-04-15T07:01:17.304Z,101369.25
2023-04-15T07:04:06.298Z,101374.09
2023-04-15T07:06:58.112Z,101378.25
2023-04-15T07:09:56.900Z,101377.84
2023-04-15T07:12:48.946Z,101391.97
2023-04-15T07:15:39.628Z,101388.88
2023-04-15T07:18:28.329Z,101394.16
2023-04-15T07:21:20.816Z,101402.59
2023-04-15T07:26:58.635Z,101413.34
2023-04-15T07:29:48.188Z,101421.06
2023-04-15T07:32:36.093Z,101425.38
2023-04-15T07:35:32.064Z,101431.94
2023-04-15T07:38:19.946Z,101431.72
2023-04-15T07:41:11.079Z,101431.50
2023-04-15T07:44:00.710Z,101444.44
2023-04-15T07:46:48.783Z,101446.16
2023-04-15T07:49:40.413Z,101445.13
2023-04-15T07:52:28.444Z,101446.78
2023-04-15T07:55:19.712Z,101450.31
2023-04-15T07:58:07.131Z,101460.28
2023-04-15T08:00:57.782Z,101461.19
2023-04-15T08:03:49.487Z,101465.19
2023-04-15T08:06:57.553Z,101474.84
2023-04-15T08:09:52.897Z,101478.50
2023-04-15T08:16:13.030Z,101481.19
2023-04-15T08:19:04.971Z,101487.50
2023-04-15T08:21:52.584Z,101495.94
2023-04-15T08:24:39.827Z,101500.09
2023-04-15T08:27:27.479Z,101504.66
2023-04-15T08:30:18.549Z,101500.34
2023-04-15T08:33:36.321Z,101510.91
2023-04-15T08:36:28.139Z,101512.88
2023-04-15T08:39:15.736Z,101515.19
2023-04-15T08:42:05.970Z,101518.38
2023-04-15T08:45:32.787Z,101524.69
2023-04-15T08:48:20.349Z,101518.72
2023-04-15T08:51:09.295Z,101538.56
2023-04-15T08:54:02.108Z,101543.41
2023-04-15T08:56:51.026Z,101550.84
2023-04-15T08:59:40.618Z,101549.25
2023-04-15T09:02:30.092Z,101551.53
2023-04-15T09:05:18.733Z,101563.53
2023-04-15T09:08:09.180Z,101558.53
2023-04-15T09:11:03.899Z,101569.66
2023-04-15T09:14:04.074Z,101564.50
2023-04-15T09:17:01.078Z,101576.56
2023-04-15T09:20:10.913Z,101579.03
2023-04-15T09:22:58.795Z,101580.88
2023-04-15T09:25:50.919Z,101585.69
2023-04-15T09:28:51.253Z,101584.78
2023-04-15T09:31:44.265Z,101595.38
2023-04-15T09:34:39.646Z,101593.59
2023-04-15T09:37:35.509Z,101592.53
2023-04-15T09:40:33.731Z,101606.94
2023-04-15T09:43:21.526Z,101600.84
2023-04-15T09:46:10.522Z,101611.78
2023-04-15T09:49:07.966Z,101609.44
2023-04-15T09:52:05.588Z,101620.66
2023-04-15T09:54:56.659Z,101625.03
2023-04-15T09:57:47.444Z,101631.66
2023-04-15T10:00:35.327Z,101624.31
2023-04-15T10:03:29.612Z,101624.19
2023-04-15T10:12:54.672Z,101635.13
2023-04-15T10:15:48.599Z,101643.50
2023-04-15T10:19:03.621Z,101643.94
2023-04-15T10:21:54.567Z,101640.25
2023-04-15T10:24:49.494Z,101653.00
2023-04-15T11:12:37.178Z,101682.44
2023-04-15T11:20:10.228Z,101703.88
2023-04-15T11:24:15.848Z,101707.69
2023-04-15T11:27:03.326Z,101714.69
2023-04-15T11:29:54.301Z,101718.88
2023-04-15T11:32:44.740Z,101711.38
2023-04-15T11:35:33.821Z,101714.91
2023-04-15T11:38:56.541Z,101727.88
2023-04-15T11:41:49.825Z,101721.41
2023-04-15T11:44:37.505Z,101736.50
2023-04-15T11:47:32.267Z,101731.88
2023-04-15T11:50:25.614Z,101740.63
2023-04-15T11:53:16.967Z,101731.19
2023-04-15T11:59:30.239Z,101732.63
2023-04-15T12:02:39.353Z,101735.38
2023-04-15T12:05:27.274Z,101745.00
2023-04-15T12:08:54.565Z,101745.56
2023-04-15T12:11:46.586Z,101745.94
2023-04-15T12:14:36.723Z,101752.44
2023-04-15T12:17:24.642Z,101748.25
2023-04-15T12:20:14.391Z,101753.84
2023-04-15T12:23:06.451Z,101753.88
2023-04-15T12:26:16.580Z,101761.66
2023-04-15T12:29:08.409Z,101771.78
2023-04-15T12:31:57.763Z,101766.06
2023-04-15T12:34:50.721Z,101770.84
2023-04-15T12:37:51.000Z,101782.84
2023-04-15T12:40:39.042Z,101783.22
2023-04-15T12:43:48.151Z,101792.69
2023-04-15T12:47:00.518Z,101787.53
2023-04-15T12:49:49.760Z,101793.16
2023-04-15T12:52:37.588Z,101801.38
2023-04-15T12:55:32.804Z,101798.75
2023-04-15T12:58:37.286Z,101802.16
2023-04-15T13:01:32.572Z,101807.78
2023-04-15T13:04:25.254Z,101796.22
2023-04-15T13:07:16.011Z,101802.13
2023-04-15T13:10:03.360Z,101811.16
2023-04-15T13:12:53.706Z,101813.94
2023-04-15T13:15:41.403Z,101824.59
2023-04-15T13:18:31.609Z,101815.97
2023-04-15T13:21:22.663Z,101841.94
2023-04-15T13:24:10.118Z,101823.38
2023-04-15T13:26:59.758Z,101836.81
2023-04-15T13:29:53.013Z,101841.22
2023-04-15T13:32:40.654Z,101841.50
2023-04-15T13:35:33.235Z,101854.81
2023-04-15T13:38:23.862Z,101849.47
2023-04-15T13:41:16.615Z,101853.88
2023-04-15T13:44:06.412Z,101861.88
2023-04-15T13:47:06.542Z,101862.47
2023-04-15T13:49:56.336Z,101872.47
2023-04-15T13:52:45.773Z,101874.41
2023-04-15T13:55:35.286Z,101884.66
2023-04-15T13:58:29.896Z,101890.38
2023-04-15T14:01:17.842Z,101891.63
2023-04-15T14:04:13.933Z,101901.41
2023-04-15T14:07:10.765Z,101899.13
2023-04-15T14:10:18.061Z,101903.38
2023-04-15T14:30:37.454Z,101916.63
2023-04-15T14:33:30.001Z,101915.03
2023-04-15T14:36:24.567Z,101915.66
2023-04-15T14:39:14.487Z,101924.59
2023-04-15T14:42:02.710Z,101922.19
2023-04-15T14:44:52.449Z,101923.91
2023-04-15T14:47:45.447Z,101935.84
2023-04-15T14:50:35.906Z,101930.69
2023-04-15T14:53:31.153Z,101927.06
2023-04-15T14:56:23.870Z,101944.28
2023-04-15T14:59:11.369Z,101947.19
2023-04-15T15:02:02.366Z,101961.94
2023-04-15T15:04:54.731Z,101937.31
2023-04-15T15:07:57.047Z,101933.97
2023-04-15T15:10:48.418Z,101941.78
2023-04-15T15:13:57.057Z,101956.84
2023-04-15T15:17:02.468Z,101949.63
2023-04-15T15:20:18.074Z,101959.47
2023-04-15T15:23:09.985Z,101976.00
2023-04-15T15:25:58.438Z,101974.75
2023-04-15T15:28:47.459Z,101990.75
2023-04-15T15:31:47.059Z,101991.16
2023-04-15T15:34:34.849Z,101986.19
2023-04-15T15:37:24.291Z,101995.97
2023-04-15T15:40:23.888Z,102006.97
2023-04-15T15:43:11.670Z,102005.03
2023-04-15T15:46:00.757Z,102010.19
2023-04-15T15:48:57.037Z,102011.69
2023-04-15T15:51:54.172Z,102018.94
2023-04-15T15:54:55.806Z,102022.00
2023-04-15T15:57:58.504Z,102025.78
2023-04-15T16:00:48.090Z,102020.56
2023-04-15T16:03:35.996Z,102029.19
2023-04-15T16:06:27.927Z,102033.53
2023-04-15T16:09:25.454Z,102044.81
2023-04-15T16:12:18.995Z,102052.22
2023-04-15T16:15:15.751Z,102045.94
2023-04-15T16:18:17.751Z,102053.16
2023-04-15T16:21:11.006Z,102050.22
2023-04-15T16:23:58.929Z,102062.47
2023-04-15T16:26:49.068Z,102062.34
2023-04-15T16:29:38.353Z,102054.25
2023-04-15T16:32:26.680Z,102064.81
2023-04-15T16:35:16.946Z,102067.72
2023-04-15T16:38:32.428Z,102087.09
2023-04-15T16:41:27.418Z,102077.41
2023-04-15T16:44:27.913Z,102082.75
2023-04-15T16:47:20.189Z,102073.38
2023-04-15T16:50:11.738Z,102075.47
2023-04-15T16:52:59.314Z,102082.75
2023-04-15T16:55:46.934Z,102076.03
2023-04-15T16:58:34.455Z,102086.13
2023-04-15T17:01:25.651Z,102091.38
2023-04-15T17:04:14.714Z,102097.09
2023-04-15T17:07:02.286Z,102104.63
2023-04-15T17:09:49.695Z,102107.59
2023-04-15T17:12:40.069Z,102112.28
2023-04-15T17:15:27.845Z,102106.09
2023-04-15T17:18:18.853Z,102112.88
2023-04-15T17:21:20.861Z,102116.22
2023-04-15T17:24:25.516Z,102107.59
2023-04-15T17:27:13.744Z,102118.22
2023-04-15T17:30:01.790Z,102120.94
2023-04-15T17:32:51.075Z,102121.53
2023-04-15T17:35:39.955Z,102122.91
2023-04-15T17:38:28.867Z,102146.28
2023-04-15T17:41:16.447Z,102132.63
2023-04-15T17:44:04.071Z,102134.88
2023-04-15T17:46:51.746Z,102128.03
2023-04-15T17:49:43.140Z,102130.19
2023-04-15T17:52:30.733Z,102137.06
2023-04-15T17:55:19.556Z,102141.88
2023-04-15T17:58:39.590Z,102147.50
2023-04-15T18:01:27.319Z,102139.31
2023-04-15T18:04:15.029Z,102136.78
2023-04-15T18:07:16.013Z,102141.09
2023-04-15T18:10:20.421Z,102144.44
2023-04-15T18:13:09.460Z,102144.56
2023-04-15T18:16:16.443Z,102147.81
2023-04-15T18:19:03.736Z,102166.88
2023-04-15T18:22:00.452Z,102160.91
2023-04-15T18:27:56.480Z,102175.69
2023-04-15T18:30:45.159Z,102166.22
2023-04-15T18:33:32.547Z,102171.75
2023-04-15T18:36:20.931Z,102162.75
2023-04-15T18:39:08.694Z,102188.88
2023-04-15T18:41:57.711Z,102182.91
2023-04-15T18:44:44.922Z,102202.91
2023-04-15T18:47:33.889Z,102193.22
2023-04-15T18:50:21.702Z,102196.09
2023-04-15T18:53:09.323Z,102199.22
2023-04-15T18:55:58.018Z,102200.91
2023-04-15T18:59:23.054Z,102206.06
2023-04-15T19:05:38.697Z,102203.16
2023-04-15T19:08:26.360Z,102226.16
2023-04-15T19:11:14.033Z,102222.94
2023-04-15T19:14:01.601Z,102232.41
2023-04-15T19:16:49.914Z,102213.72
2023-04-15T19:19:49.438Z,102221.75
2023-04-15T19:22:49.222Z,102224.63
2023-04-15T19:25:38.471Z,102228.06
2023-04-15T19:28:28.326Z,102223.72
2023-04-15T19:31:23.613Z,102246.91
2023-04-15T19:34:13.927Z,102243.03
2023-04-15T19:37:01.653Z,102245.72
2023-04-15T19:39:50.578Z,102230.25
2023-04-15T19:42:38.686Z,102245.78
2023-04-15T19:45:38.027Z,102243.44
2023-04-15T19:48:26.054Z,102244.78
2023-04-15T19:51:14.578Z,102247.56
2023-04-15T19:54:31.265Z,102250.44
2023-04-15T19:57:52.505Z,102259.06
2023-04-15T20:01:01.669Z,102260.63
2023-04-15T20:04:16.800Z,102256.94
2023-04-15T20:07:06.654Z,102256.09
2023-04-15T20:09:54.028Z,102258.34
2023-04-15T20:12:51.328Z,102239.44
2023-04-15T20:15:39.866Z,102254.94
2023-04-15T20:18:27.343Z,102250.72
2023-04-15T20:21:14.697Z,102259.47
2023-04-15T20:24:02.527Z,102251.22
2023-04-15T20:26:50.119Z,102251.22
2023-04-15T20:29:45.167Z,102251.22
2023-04-15T20:32:41.155Z,102255.53
2023-04-15T20:35:31.169Z,102263.69
2023-04-15T20:38:19.189Z,102251.13
2023-04-15T20:41:37.692Z,102250.38
2023-04-15T20:48:22.819Z,102240.91
2023-04-15T20:51:10.448Z,102240.91
2023-04-15T20:53:58.172Z,102253.75
2023-04-15T20:56:45.512Z,102251.22
2023-04-15T20:59:36.016Z,102257.34
2023-04-15T21:02:24.367Z,102261.28
2023-04-15T21:05:24.636Z,102264.63
2023-04-15T21:08:52.709Z,102269.91
2023-04-15T21:15:24.163Z,102257.47
2023-04-15T21:18:11.825Z,102275.56
2023-04-15T21:21:04.681Z,102258.66
2023-04-15T21:24:05.983Z,102265.38
2023-04-15T21:26:56.353Z,102274.97
2023-04-15T21:29:51.198Z,102272.00
2023-04-15T21:32:38.915Z,102264.66
2023-04-15T21:35:53.706Z,102272.84
2023-04-15T21:38:42.627Z,102281.31
2023-04-15T21:41:31.195Z,102283.25
2023-04-15T21:44:40.503Z,102285.75
2023-04-15T21:47:30.804Z,102284.81
2023-04-15T21:50:39.379Z,102285.75
2023-04-15T21:53:45.129Z,102287.69
2023-04-15T21:56:37.320Z,102285.06
2023-04-15T21:59:55.582Z,102296.69
2023-04-15T22:02:48.811Z,102297.88
2023-04-15T22:05:36.917Z,102299.09
2023-04-15T22:08:25.067Z,102306.84
2023-04-15T22:11:29.321Z,102302.31
2023-04-15T22:14:19.381Z,102306.63
2023-04-15T22:17:09.400Z,102316.94
2023-04-15T22:19:57.292Z,102320.16
2023-04-15T22:22:45.019Z,102309.72
2023-04-15T22:25:37.012Z,102315.16
2023-04-15T22:28:24.606Z,102306.19
2023-04-15T22:31:31.504Z,102313.00
2023-04-15T22:34:32.602Z,102300.41
2023-04-15T22:37:20.744Z,102306.72
2023-04-15T22:40:13.472Z,102316.88
2023-04-15T22:43:20.114Z,102319.63
2023-04-15T22:46:44.466Z,102323.22
2023-04-15T22:49:35.163Z,102316.66
2023-04-15T22:52:35.009Z,102330.38
2023-04-15T22:55:30.491Z,102328.44
2023-04-15T22:58:37.234Z,102331.09
2023-04-15T23:01:43.037Z,102333.72
2023-04-15T23:04:36.852Z,102343.00
2023-04-15T23:07:24.427Z,102340.38
2023-04-15T23:10:30.298Z,102354.72
2023-04-15T23:13:22.705Z,102357.88
2023-04-15T23:16:10.496Z,102345.03
2023-04-15T23:19:00.664Z,102357.69
2023-04-15T23:21:54.521Z,102360.94
2023-04-15T23:24:47.513Z,102352.09
2023-04-15T23:27:40.420Z,102352.31
2023-04-15T23:30:36.783Z,102362.63
2023-04-15T23:33:27.047Z,102361.38
2023-04-15T23:36:16.333Z,102353.47
2023-04-15T23:39:09.232Z,102367.59
2023-04-15T23:41:57.789Z,102367.38
2023-04-15T23:45:28.726Z,102361.16
2023-04-15T23:48:21.732Z,102363.91
2023-04-15T23:51:48.586Z,102363.91
2023-04-15T23:54:47.458Z,102358.25
2023-04-15T23:57:35.445Z,102365.19
